This is the latest recevied weather packets stored in our database for station/object SP8PUB-10. If no packets are shown the sender has not sent any weather packets the latest 10 day(s).
| Time | Temp. | Humidity | Pressure | Rain* | Wind** | Luminosity | Snow |
|---|---|---|---|---|---|---|---|
| 1777299542 | 14.44° C | 36% | 1020.2 hPa | - | - | - | - |
| 1777297742 | 15° C | 36% | 1020.4 hPa | - | - | - | - |
| 1777295042 | 15° C | 36% | 1020.6 hPa | - | - | - | - |
| 1777292341 | 15° C | 37% | 1021 hPa | - | - | - | - |
| 1777291441 | 15.56° C | 38% | 1021.1 hPa | - | - | - | - |
| 1777288741 | 14.44° C | 39% | 1021.5 hPa | - | - | - | - |
| 1777287841 | 14.44° C | 40% | 1021.5 hPa | - | - | - | - |
| 1777286941 | 14.44° C | 39% | 1021.7 hPa | - | - | - | - |
| 1777286040 | 13.89° C | 39% | 1021.8 hPa | - | - | - | - |
| 1777285140 | 13.89° C | 39% | 1022.1 hPa | - | - | - | - |
| 1777281544 | 13.89° C | 38% | 1022.6 hPa | - | - | - | - |
| 1777279744 | 17.22° C | 35% | 1023.1 hPa | - | - | - | - |
| 1777278844 | 20° C | 33% | 1023.1 hPa | - | - | - | - |
| 1777277944 | 21.67° C | 33% | 1023.3 hPa | - | - | - | - |
| 1777277044 | 21.11° C | 32% | 1023.5 hPa | - | - | - | - |
| 1777276144 | 21.67° C | 31% | 1023.8 hPa | - | - | - | - |
| 1777275244 | 23.33° C | 29% | 1023.9 hPa | - | - | - | - |
| 1777274343 | 22.78° C | 30% | 1024.1 hPa | - | - | - | - |
| 1777273443 | 21.67° C | 30% | 1024.1 hPa | - | - | - | - |
| 1777272543 | 22.78° C | 31% | 1024.1 hPa | - | - | - | - |
| 1777271643 | 18.89° C | 35% | 1024.3 hPa | - | - | - | - |
| 1777270743 | 13.33° C | 41% | 1024.3 hPa | - | - | - | - |
| 1777269843 | 9.44° C | 45% | 1024.2 hPa | - | - | - | - |
| 1777268943 | 7.22° C | 52% | 1024.4 hPa | - | - | - | - |
| 1777268043 | 5.56° C | 60% | 1024.4 hPa | - | - | - | - |
* Rain since midnight (hover to see other rain measurements)
** Current wind speed in m/s (hover to see current wind gust speed)